sensor_id;sensor_type;location;lat;lon;timestamp;pressure;altitude;pressure_sealevel;temperature;humidity
61128;BME280;47013;42.664;23.242;2023-04-01T00:01:41;93159.25;;;12.31;49.21
61128;BME280;47013;42.664;23.242;2023-04-01T00:04:06;93155.78;;;12.43;46.97
61128;BME280;47013;42.664;23.242;2023-04-01T00:06:32;93148.50;;;12.53;45.64
61128;BME280;47013;42.664;23.242;2023-04-01T00:08:57;93146.28;;;12.60;46.79
61128;BME280;47013;42.664;23.242;2023-04-01T00:11:25;93154.88;;;12.72;48.29
61128;BME280;47013;42.664;23.242;2023-04-01T00:13:52;93156.53;;;12.69;50.66
61128;BME280;47013;42.664;23.242;2023-04-01T00:16:17;93151.28;;;12.62;50.05
61128;BME280;47013;42.664;23.242;2023-04-01T00:18:43;93162.28;;;12.58;52.91
61128;BME280;47013;42.664;23.242;2023-04-01T00:21:08;93163.28;;;12.39;55.21
61128;BME280;47013;42.664;23.242;2023-04-01T00:23:33;93166.78;;;12.27;57.52
61128;BME280;47013;42.664;23.242;2023-04-01T00:25:59;93160.47;;;12.30;57.62
61128;BME280;47013;42.664;23.242;2023-04-01T00:28:26;93161.41;;;12.10;59.11
61128;BME280;47013;42.664;23.242;2023-04-01T00:30:51;93159.88;;;11.97;59.64
61128;BME280;47013;42.664;23.242;2023-04-01T00:33:17;93155.31;;;11.52;62.12
61128;BME280;47013;42.664;23.242;2023-04-01T00:35:42;93137.94;;;11.49;63.31
61128;BME280;47013;42.664;23.242;2023-04-01T00:38:08;93151.19;;;11.31;64.09
61128;BME280;47013;42.664;23.242;2023-04-01T00:40:41;93138.50;;;11.28;65.10
61128;BME280;47013;42.664;23.242;2023-04-01T00:43:15;93145.44;;;11.29;64.16
61128;BME280;47013;42.664;23.242;2023-04-01T00:45:48;93133.84;;;11.29;65.16
61128;BME280;47013;42.664;23.242;2023-04-01T00:48:23;93149.28;;;10.86;66.32
61128;BME280;47013;42.664;23.242;2023-04-01T00:53:21;93140.00;;;11.00;67.03
61128;BME280;47013;42.664;23.242;2023-04-01T00:58:40;93127.06;;;10.91;67.03
61128;BME280;47013;42.664;23.242;2023-04-01T01:01:12;93117.72;;;10.92;66.53
61128;BME280;47013;42.664;23.242;2023-04-01T01:03:38;93113.31;;;10.99;66.94
61128;BME280;47013;42.664;23.242;2023-04-01T01:06:27;93102.81;;;11.01;66.57
61128;BME280;47013;42.664;23.242;2023-04-01T01:11:29;93089.84;;;10.92;66.71
61128;BME280;47013;42.664;23.242;2023-04-01T01:14:06;93094.84;;;10.93;66.55
61128;BME280;47013;42.664;23.242;2023-04-01T01:16:37;93089.84;;;10.92;65.98
61128;BME280;47013;42.664;23.242;2023-04-01T01:24:13;93081.47;;;10.86;65.91
61128;BME280;47013;42.664;23.242;2023-04-01T01:37:21;93080.22;;;10.75;65.11
61128;BME280;47013;42.664;23.242;2023-04-01T01:39:54;93074.38;;;10.76;64.16
61128;BME280;47013;42.664;23.242;2023-04-01T01:42:20;93067.53;;;10.72;64.60
61128;BME280;47013;42.664;23.242;2023-04-01T01:44:47;93069.38;;;10.75;63.95
61128;BME280;47013;42.664;23.242;2023-04-01T01:47:13;93064.72;;;10.75;63.98
61128;BME280;47013;42.664;23.242;2023-04-01T01:49:40;93064.13;;;10.84;63.61
61128;BME280;47013;42.664;23.242;2023-04-01T01:52:09;93048.06;;;10.89;63.48
61128;BME280;47013;42.664;23.242;2023-04-01T01:54:47;93061.88;;;10.95;63.14
61128;BME280;47013;42.664;23.242;2023-04-01T01:57:13;93045.50;;;10.99;62.47
61128;BME280;47013;42.664;23.242;2023-04-01T02:00:03;93050.78;;;10.89;61.83
61128;BME280;47013;42.664;23.242;2023-04-01T02:02:55;93039.59;;;10.87;62.00
61128;BME280;47013;42.664;23.242;2023-04-01T02:05:27;93047.69;;;10.75;62.81
61128;BME280;47013;42.664;23.242;2023-04-01T02:08:16;93051.53;;;10.90;62.48
61128;BME280;47013;42.664;23.242;2023-04-01T02:10:41;93038.00;;;10.90;61.73
61128;BME280;47013;42.664;23.242;2023-04-01T02:13:09;93037.38;;;10.99;61.21
61128;BME280;47013;42.664;23.242;2023-04-01T02:15:40;93042.38;;;11.00;61.27
61128;BME280;47013;42.664;23.242;2023-04-01T02:18:06;93034.56;;;11.02;61.86
61128;BME280;47013;42.664;23.242;2023-04-01T02:20:32;93040.22;;;11.08;61.66
61128;BME280;47013;42.664;23.242;2023-04-01T02:22:59;93034.59;;;11.15;61.19
61128;BME280;47013;42.664;23.242;2023-04-01T02:25:33;93033.72;;;11.18;61.11
61128;BME280;47013;42.664;23.242;2023-04-01T02:27:59;93047.28;;;11.18;60.37
61128;BME280;47013;42.664;23.242;2023-04-01T02:30:26;93051.53;;;11.19;61.08
61128;BME280;47013;42.664;23.242;2023-04-01T02:32:52;93045.34;;;11.18;60.07
61128;BME280;47013;42.664;23.242;2023-04-01T02:35:18;93047.66;;;11.20;59.96
61128;BME280;47013;42.664;23.242;2023-04-01T02:37:44;93047.78;;;11.00;60.73
61128;BME280;47013;42.664;23.242;2023-04-01T02:40:11;93043.78;;;11.05;60.63
61128;BME280;47013;42.664;23.242;2023-04-01T02:42:37;93050.66;;;11.09;60.12
61128;BME280;47013;42.664;23.242;2023-04-01T02:45:03;93048.78;;;11.06;60.10
61128;BME280;47013;42.664;23.242;2023-04-01T02:47:31;93045.41;;;11.02;59.46
61128;BME280;47013;42.664;23.242;2023-04-01T02:49:56;93057.13;;;10.99;59.66
61128;BME280;47013;42.664;23.242;2023-04-01T02:52:24;93057.78;;;11.03;59.17
61128;BME280;47013;42.664;23.242;2023-04-01T02:54:49;93068.88;;;11.09;58.39
61128;BME280;47013;42.664;23.242;2023-04-01T02:57:14;93066.06;;;11.12;59.00
61128;BME280;47013;42.664;23.242;2023-04-01T02:59:40;93064.97;;;11.10;58.31
61128;BME280;47013;42.664;23.242;2023-04-01T03:02:05;93065.25;;;10.99;57.78
61128;BME280;47013;42.664;23.242;2023-04-01T03:04:31;93067.22;;;10.99;58.06
61128;BME280;47013;42.664;23.242;2023-04-01T03:06:57;93072.63;;;10.99;59.21
61128;BME280;47013;42.664;23.242;2023-04-01T03:09:22;93068.72;;;11.00;59.02
61128;BME280;47013;42.664;23.242;2023-04-01T03:11:47;93064.41;;;11.02;55.14
61128;BME280;47013;42.664;23.242;2023-04-01T03:14:12;93065.44;;;11.21;49.20
61128;BME280;47013;42.664;23.242;2023-04-01T03:16:38;93058.78;;;11.51;49.04
61128;BME280;47013;42.664;23.242;2023-04-01T03:19:03;93088.44;;;11.71;50.35
61128;BME280;47013;42.664;23.242;2023-04-01T03:21:28;93082.63;;;11.85;51.03
61128;BME280;47013;42.664;23.242;2023-04-01T03:23:54;93078.38;;;11.84;56.93
61128;BME280;47013;42.664;23.242;2023-04-01T03:26:19;93075.66;;;11.84;58.74
61128;BME280;47013;42.664;23.242;2023-04-01T03:28:44;93073.69;;;11.85;56.88
61128;BME280;47013;42.664;23.242;2023-04-01T03:31:10;93074.81;;;11.87;55.90
61128;BME280;47013;42.664;23.242;2023-04-01T03:33:35;93060.03;;;11.88;59.17
61128;BME280;47013;42.664;23.242;2023-04-01T03:36:01;93051.41;;;11.77;59.71
61128;BME280;47013;42.664;23.242;2023-04-01T03:38:26;93045.47;;;11.82;61.61
61128;BME280;47013;42.664;23.242;2023-04-01T03:40:51;93035.47;;;11.79;62.47
61128;BME280;47013;42.664;23.242;2023-04-01T03:43:16;93029.47;;;11.84;61.50
61128;BME280;47013;42.664;23.242;2023-04-01T03:45:45;93015.25;;;11.93;63.00
61128;BME280;47013;42.664;23.242;2023-04-01T03:48:11;92999.06;;;11.76;64.39
61128;BME280;47013;42.664;23.242;2023-04-01T03:50:36;92989.19;;;11.82;67.72
61128;BME280;47013;42.664;23.242;2023-04-01T03:53:02;92991.03;;;11.86;67.91
61128;BME280;47013;42.664;23.242;2023-04-01T03:55:27;92986.03;;;11.84;70.21
61128;BME280;47013;42.664;23.242;2023-04-01T03:57:52;92978.31;;;11.82;70.54
61128;BME280;47013;42.664;23.242;2023-04-01T04:00:18;92972.34;;;11.49;72.05
61128;BME280;47013;42.664;23.242;2023-04-01T04:02:43;92971.03;;;11.54;74.13
61128;BME280;47013;42.664;23.242;2023-04-01T04:05:08;92964.19;;;11.49;72.91
61128;BME280;47013;42.664;23.242;2023-04-01T04:07:34;92959.84;;;11.52;73.57
61128;BME280;47013;42.664;23.242;2023-04-01T04:10:00;92959.97;;;11.48;71.44
61128;BME280;47013;42.664;23.242;2023-04-01T04:12:25;92960.81;;;11.45;70.89
61128;BME280;47013;42.664;23.242;2023-04-01T04:14:51;92960.81;;;11.45;70.86
61128;BME280;47013;42.664;23.242;2023-04-01T04:17:16;92965.91;;;11.43;69.15
61128;BME280;47013;42.664;23.242;2023-04-01T04:19:42;92955.50;;;11.42;69.49
61128;BME280;47013;42.664;23.242;2023-04-01T04:22:07;92954.31;;;11.43;68.59
61128;BME280;47013;42.664;23.242;2023-04-01T04:24:33;92951.25;;;11.41;67.59
61128;BME280;47013;42.664;23.242;2023-04-01T04:26:59;92950.81;;;11.42;67.86
61128;BME280;47013;42.664;23.242;2023-04-01T04:29:24;92936.81;;;11.44;65.42
61128;BME280;47013;42.664;23.242;2023-04-01T04:31:49;92929.34;;;11.48;66.33
61128;BME280;47013;42.664;23.242;2023-04-01T04:34:15;92933.13;;;11.50;67.25
61128;BME280;47013;42.664;23.242;2023-04-01T04:36:40;92931.19;;;11.51;67.83
61128;BME280;47013;42.664;23.242;2023-04-01T04:39:05;92930.44;;;11.50;68.77
61128;BME280;47013;42.664;23.242;2023-04-01T04:41:31;92922.41;;;11.34;69.98
61128;BME280;47013;42.664;23.242;2023-04-01T04:43:56;92913.16;;;11.19;70.98
61128;BME280;47013;42.664;23.242;2023-04-01T04:46:23;92914.94;;;10.71;73.46
61128;BME280;47013;42.664;23.242;2023-04-01T04:48:49;92925.88;;;10.68;74.48
61128;BME280;47013;42.664;23.242;2023-04-01T04:51:15;92918.31;;;10.75;74.67
61128;BME280;47013;42.664;23.242;2023-04-01T04:53:40;92912.59;;;10.86;75.24
61128;BME280;47013;42.664;23.242;2023-04-01T04:56:06;92905.78;;;10.94;74.55
61128;BME280;47013;42.664;23.242;2023-04-01T04:58:31;92902.94;;;10.85;71.70
61128;BME280;47013;42.664;23.242;2023-04-01T05:00:56;92900.13;;;10.88;71.47
61128;BME280;47013;42.664;23.242;2023-04-01T05:03:22;92904.22;;;10.93;72.16
61128;BME280;47013;42.664;23.242;2023-04-01T05:05:48;92901.53;;;10.93;72.21
61128;BME280;47013;42.664;23.242;2023-04-01T05:08:13;92902.63;;;10.96;72.43
61128;BME280;47013;42.664;23.242;2023-04-01T05:10:39;92887.13;;;10.96;71.77
61128;BME280;47013;42.664;23.242;2023-04-01T05:13:04;92888.72;;;10.93;71.82
61128;BME280;47013;42.664;23.242;2023-04-01T05:15:30;92886.88;;;10.90;72.13
61128;BME280;47013;42.664;23.242;2023-04-01T05:17:55;92878.75;;;10.90;72.31
61128;BME280;47013;42.664;23.242;2023-04-01T05:20:20;92877.50;;;10.53;73.26
61128;BME280;47013;42.664;23.242;2023-04-01T05:22:45;92856.56;;;10.54;74.26
61128;BME280;47013;42.664;23.242;2023-04-01T05:25:11;92864.88;;;10.34;73.18
61128;BME280;47013;42.664;23.242;2023-04-01T05:27:36;92863.25;;;10.37;73.16
61128;BME280;47013;42.664;23.242;2023-04-01T05:30:01;92874.22;;;10.46;73.12
61128;BME280;47013;42.664;23.242;2023-04-01T05:32:26;92871.31;;;10.53;72.23
61128;BME280;47013;42.664;23.242;2023-04-01T05:34:52;92859.72;;;10.65;72.02
61128;BME280;47013;42.664;23.242;2023-04-01T05:37:18;92865.94;;;10.78;71.54
61128;BME280;47013;42.664;23.242;2023-04-01T05:39:43;92871.38;;;10.91;70.83
61128;BME280;47013;42.664;23.242;2023-04-01T05:42:08;92869.41;;;11.04;69.89
61128;BME280;47013;42.664;23.242;2023-04-01T05:44:34;92858.56;;;11.04;72.14
61128;BME280;47013;42.664;23.242;2023-04-01T05:47:00;92863.66;;;10.89;70.65
61128;BME280;47013;42.664;23.242;2023-04-01T05:49:25;92841.44;;;10.95;71.39
61128;BME280;47013;42.664;23.242;2023-04-01T05:51:50;92852.72;;;11.06;70.89
61128;BME280;47013;42.664;23.242;2023-04-01T05:54:16;92856.41;;;10.86;67.66
61128;BME280;47013;42.664;23.242;2023-04-01T05:56:41;92851.00;;;10.99;70.33
61128;BME280;47013;42.664;23.242;2023-04-01T05:59:09;92852.81;;;11.15;68.92
61128;BME280;47013;42.664;23.242;2023-04-01T06:01:35;92847.72;;;11.17;67.38
61128;BME280;47013;42.664;23.242;2023-04-01T06:04:00;92844.69;;;11.28;66.19
61128;BME280;47013;42.664;23.242;2023-04-01T06:06:29;92849.88;;;11.35;65.56
61128;BME280;47013;42.664;23.242;2023-04-01T06:08:56;92849.00;;;11.50;65.77
61128;BME280;47013;42.664;23.242;2023-04-01T06:16:29;92857.78;;;11.55;64.29
61128;BME280;47013;42.664;23.242;2023-04-01T06:26:52;92850.25;;;11.59;63.42
61128;BME280;47013;42.664;23.242;2023-04-01T06:32:31;92837.47;;;11.59;62.24
61128;BME280;47013;42.664;23.242;2023-04-01T06:42:29;92820.19;;;11.66;61.41
61128;BME280;47013;42.664;23.242;2023-04-01T06:58:02;92802.06;;;12.72;62.29
61128;BME280;47013;42.664;23.242;2023-04-01T07:00:30;92796.22;;;12.52;60.67
61128;BME280;47013;42.664;23.242;2023-04-01T07:03:00;92800.91;;;12.51;61.39
61128;BME280;47013;42.664;23.242;2023-04-01T07:05:34;92813.47;;;12.58;62.10
61128;BME280;47013;42.664;23.242;2023-04-01T07:08:04;92800.31;;;12.56;61.99
61128;BME280;47013;42.664;23.242;2023-04-01T07:10:33;92805.72;;;12.47;60.64
61128;BME280;47013;42.664;23.242;2023-04-01T07:13:02;92809.41;;;12.62;60.39
61128;BME280;47013;42.664;23.242;2023-04-01T07:15:34;92798.13;;;12.73;59.39
61128;BME280;47013;42.664;23.242;2023-04-01T07:18:05;92809.59;;;12.68;59.46
61128;BME280;47013;42.664;23.242;2023-04-01T07:20:32;92830.06;;;12.82;59.70
61128;BME280;47013;42.664;23.242;2023-04-01T07:23:00;92815.25;;;12.83;58.88
61128;BME280;47013;42.664;23.242;2023-04-01T07:25:29;92811.03;;;12.82;59.62
61128;BME280;47013;42.664;23.242;2023-04-01T07:27:56;92814.97;;;12.81;58.13
61128;BME280;47013;42.664;23.242;2023-04-01T07:30:24;92799.66;;;13.05;58.14
61128;BME280;47013;42.664;23.242;2023-04-01T07:32:56;92802.59;;;13.20;58.14
61128;BME280;47013;42.664;23.242;2023-04-01T07:35:28;92809.75;;;13.45;58.42
61128;BME280;47013;42.664;23.242;2023-04-01T07:43:05;92790.69;;;13.36;57.81
61128;BME280;47013;42.664;23.242;2023-04-01T07:56:26;92801.69;;;13.23;58.33
61128;BME280;47013;42.664;23.242;2023-04-01T07:59:09;92789.06;;;13.07;59.24
61128;BME280;47013;42.664;23.242;2023-04-01T08:01:45;92785.75;;;13.12;59.59
61128;BME280;47013;42.664;23.242;2023-04-01T08:07:07;92775.00;;;13.09;60.75
61128;BME280;47013;42.664;23.242;2023-04-01T08:12:27;92777.19;;;13.23;59.61
61128;BME280;47013;42.664;23.242;2023-04-01T08:22:27;92744.41;;;13.36;58.98
61128;BME280;47013;42.664;23.242;2023-04-01T08:24:54;92748.19;;;13.47;58.76
61128;BME280;47013;42.664;23.242;2023-04-01T08:32:35;92731.72;;;13.97;58.68
61128;BME280;47013;42.664;23.242;2023-04-01T08:37:35;92696.75;;;13.95;57.44
61128;BME280;47013;42.664;23.242;2023-04-01T08:40:21;92687.59;;;14.26;58.07
61128;BME280;47013;42.664;23.242;2023-04-01T08:43:05;92674.25;;;14.28;56.12
61128;BME280;47013;42.664;23.242;2023-04-01T08:46:06;92660.13;;;14.38;55.66
61128;BME280;47013;42.664;23.242;2023-04-01T08:56:00;92689.09;;;14.78;53.32
61128;BME280;47013;42.664;23.242;2023-04-01T09:01:51;92673.34;;;14.97;47.92
61128;BME280;47013;42.664;23.242;2023-04-01T09:04:38;92655.78;;;14.98;45.53
61128;BME280;47013;42.664;23.242;2023-04-01T09:36:03;92644.53;;;15.97;37.04
61128;BME280;47013;42.664;23.242;2023-04-01T09:38:32;92628.63;;;15.96;37.18
61128;BME280;47013;42.664;23.242;2023-04-01T09:43:26;92620.22;;;15.99;37.74
61128;BME280;47013;42.664;23.242;2023-04-01T09:45:56;92600.91;;;16.03;37.49
61128;BME280;47013;42.664;23.242;2023-04-01T10:32:07;92533.25;;;16.68;35.71
61128;BME280;47013;42.664;23.242;2023-04-01T11:03:45;92501.81;;;16.63;35.94
61128;BME280;47013;42.664;23.242;2023-04-01T11:09:08;92485.50;;;16.69;35.90
61128;BME280;47013;42.664;23.242;2023-04-01T11:53:10;92759.81;;;13.30;77.01
61128;BME280;47013;42.664;23.242;2023-04-01T11:58:27;92770.22;;;12.82;82.02
61128;BME280;47013;42.664;23.242;2023-04-01T12:04:26;92752.69;;;12.43;88.70
61128;BME280;47013;42.664;23.242;2023-04-01T12:27:36;92738.22;;;12.24;95.26
61128;BME280;47013;42.664;23.242;2023-04-01T12:35:20;92747.03;;;11.84;91.21
61128;BME280;47013;42.664;23.242;2023-04-01T12:38:30;92759.22;;;11.79;90.26
61128;BME280;47013;42.664;23.242;2023-04-01T12:48:10;92744.81;;;11.57;89.79
61128;BME280;47013;42.664;23.242;2023-04-01T12:55:44;92720.78;;;11.12;94.51
61128;BME280;47013;42.664;23.242;2023-04-01T13:05:59;92709.88;;;10.64;99.09
61128;BME280;47013;42.664;23.242;2023-04-01T13:18:40;92654.91;;;10.64;86.17
61128;BME280;47013;42.664;23.242;2023-04-01T13:24:24;92642.91;;;11.00;83.91
61128;BME280;47013;42.664;23.242;2023-04-01T13:37:49;92622.50;;;12.04;74.97
61128;BME280;47013;42.664;23.242;2023-04-01T13:45:19;92599.03;;;12.20;72.83
61128;BME280;47013;42.664;23.242;2023-04-01T13:50:20;92593.28;;;12.85;68.24
61128;BME280;47013;42.664;23.242;2023-04-01T13:57:52;92584.38;;;13.40;65.79
61128;BME280;47013;42.664;23.242;2023-04-01T14:00:24;92584.53;;;13.54;62.04
61128;BME280;47013;42.664;23.242;2023-04-01T14:05:25;92563.91;;;13.72;60.34
61128;BME280;47013;42.664;23.242;2023-04-01T14:20:31;92562.00;;;13.96;53.54
61128;BME280;47013;42.664;23.242;2023-04-01T14:27:58;92536.25;;;14.06;56.58
61128;BME280;47013;42.664;23.242;2023-04-01T14:30:41;92536.47;;;13.84;56.02
61128;BME280;47013;42.664;23.242;2023-04-01T14:51:03;92521.06;;;14.05;52.34
61128;BME280;47013;42.664;23.242;2023-04-01T14:53:37;92525.91;;;14.10;53.24
61128;BME280;47013;42.664;23.242;2023-04-01T14:56:09;92532.19;;;14.26;54.99
61128;BME280;47013;42.664;23.242;2023-04-01T14:58:41;92525.91;;;14.10;53.51
61128;BME280;47013;42.664;23.242;2023-04-01T15:09:00;92543.84;;;13.93;59.58
61128;BME280;47013;42.664;23.242;2023-04-01T15:14:11;92563.38;;;13.92;60.22
61128;BME280;47013;42.664;23.242;2023-04-01T15:26:34;92581.59;;;13.76;56.10
61128;BME280;47013;42.664;23.242;2023-04-01T15:32:13;92568.50;;;13.47;54.73
61128;BME280;47013;42.664;23.242;2023-04-01T15:39:51;92568.34;;;13.42;56.74
61128;BME280;47013;42.664;23.242;2023-04-01T15:47:33;92732.16;;;13.31;59.44
61128;BME280;47013;42.664;23.242;2023-04-01T15:52:43;92783.19;;;12.16;65.19
61128;BME280;47013;42.664;23.242;2023-04-01T15:57:43;92819.94;;;11.13;73.87
61128;BME280;47013;42.664;23.242;2023-04-01T16:02:46;92822.41;;;10.31;81.99
61128;BME280;47013;42.664;23.242;2023-04-01T16:08:03;92846.25;;;9.62;87.31
61128;BME280;47013;42.664;23.242;2023-04-01T16:10:44;92859.69;;;9.49;90.78
61128;BME280;47013;42.664;23.242;2023-04-01T16:13:35;92866.66;;;9.34;100.00
61128;BME280;47013;42.664;23.242;2023-04-01T16:23:55;92875.31;;;8.93;94.31
61128;BME280;47013;42.664;23.242;2023-04-01T16:31:37;92891.28;;;8.87;96.75
61128;BME280;47013;42.664;23.242;2023-04-01T16:34:14;92896.75;;;8.83;96.72
61128;BME280;47013;42.664;23.242;2023-04-01T16:37:00;92900.59;;;8.86;97.03
61128;BME280;47013;42.664;23.242;2023-04-01T16:44:31;92911.66;;;8.92;97.30
61128;BME280;47013;42.664;23.242;2023-04-01T16:47:09;92906.59;;;8.94;96.63
61128;BME280;47013;42.664;23.242;2023-04-01T16:54:35;92924.81;;;8.90;95.75
61128;BME280;47013;42.664;23.242;2023-04-01T16:57:03;92927.13;;;8.71;92.16
61128;BME280;47013;42.664;23.242;2023-04-01T17:02:02;92919.31;;;8.57;90.98
61128;BME280;47013;42.664;23.242;2023-04-01T17:04:47;92929.09;;;8.51;92.43
61128;BME280;47013;42.664;23.242;2023-04-01T17:10:18;92942.38;;;8.42;92.14
61128;BME280;47013;42.664;23.242;2023-04-01T17:12:50;92962.59;;;8.34;92.62
61128;BME280;47013;42.664;23.242;2023-04-01T17:15:23;92972.59;;;8.37;91.95
61128;BME280;47013;42.664;23.242;2023-04-01T17:18:07;92976.09;;;8.34;91.01
61128;BME280;47013;42.664;23.242;2023-04-01T17:20:47;92967.28;;;8.29;91.35
61128;BME280;47013;42.664;23.242;2023-04-01T17:35:58;92964.75;;;8.19;92.49
61128;BME280;47013;42.664;23.242;2023-04-01T17:41:04;92957.69;;;8.05;93.28
61128;BME280;47013;42.664;23.242;2023-04-01T17:43:36;92968.56;;;8.02;91.72
61128;BME280;47013;42.664;23.242;2023-04-01T18:24:44;93012.03;;;7.84;87.69
61128;BME280;47013;42.664;23.242;2023-04-01T18:27:16;93013.03;;;7.93;86.83
61128;BME280;47013;42.664;23.242;2023-04-01T18:29:50;93025.22;;;8.02;86.74
61128;BME280;47013;42.664;23.242;2023-04-01T18:32:33;93027.88;;;8.05;85.58
61128;BME280;47013;42.664;23.242;2023-04-01T18:38:00;93034.44;;;8.04;85.21
61128;BME280;47013;42.664;23.242;2023-04-01T18:43:02;93030.09;;;7.87;85.31
61128;BME280;47013;42.664;23.242;2023-04-01T18:47:57;93028.28;;;8.04;85.01
61128;BME280;47013;42.664;23.242;2023-04-01T18:50:30;93039.84;;;8.04;83.24
61128;BME280;47013;42.664;23.242;2023-04-01T18:55:53;93040.50;;;8.12;83.65
61128;BME280;47013;42.664;23.242;2023-04-01T19:03:53;93031.63;;;8.11;83.09
61128;BME280;47013;42.664;23.242;2023-04-01T19:06:42;93044.72;;;8.13;82.41
61128;BME280;47013;42.664;23.242;2023-04-01T19:09:16;93042.13;;;8.06;83.06
61128;BME280;47013;42.664;23.242;2023-04-01T19:11:48;93045.59;;;8.06;81.91
61128;BME280;47013;42.664;23.242;2023-04-01T19:14:44;93049.44;;;8.09;81.56
61128;BME280;47013;42.664;23.242;2023-04-01T19:17:16;93054.94;;;8.02;81.68
61128;BME280;47013;42.664;23.242;2023-04-01T19:34:49;93083.13;;;8.24;80.92
61128;BME280;47013;42.664;23.242;2023-04-01T19:42:29;93100.84;;;8.25;79.81
61128;BME280;47013;42.664;23.242;2023-04-01T19:45:07;93110.13;;;8.24;77.96
61128;BME280;47013;42.664;23.242;2023-04-01T19:48:04;93111.66;;;8.25;78.28
61128;BME280;47013;42.664;23.242;2023-04-01T19:50:27;93113.25;;;8.22;77.64
61128;BME280;47013;42.664;23.242;2023-04-01T19:52:59;93112.06;;;8.23;77.78
61128;BME280;47013;42.664;23.242;2023-04-01T19:58:06;93108.59;;;8.23;78.90
61128;BME280;47013;42.664;23.242;2023-04-01T20:00:50;93108.59;;;8.23;79.10
61128;BME280;47013;42.664;23.242;2023-04-01T20:13:25;93095.13;;;7.96;80.43
61128;BME280;47013;42.664;23.242;2023-04-01T20:16:08;93089.06;;;7.88;80.71
61128;BME280;47013;42.664;23.242;2023-04-01T20:23:43;93098.28;;;7.91;80.79
61128;BME280;47013;42.664;23.242;2023-04-01T20:26:13;93095.56;;;7.91;80.70
61128;BME280;47013;42.664;23.242;2023-04-01T20:28:45;93103.69;;;7.91;81.36
61128;BME280;47013;42.664;23.242;2023-04-01T20:31:23;93096.47;;;7.84;81.07
61128;BME280;47013;42.664;23.242;2023-04-01T20:36:27;93100.47;;;7.73;81.72
61128;BME280;47013;42.664;23.242;2023-04-01T20:41:31;93102.84;;;7.67;81.45
61128;BME280;47013;42.664;23.242;2023-04-01T20:46:48;93107.59;;;7.59;82.47
61128;BME280;47013;42.664;23.242;2023-04-01T20:49:26;93101.84;;;7.57;81.79
61128;BME280;47013;42.664;23.242;2023-04-01T20:54:42;93095.28;;;7.58;81.60
61128;BME280;47013;42.664;23.242;2023-04-01T20:59:50;93094.13;;;7.59;81.06
61128;BME280;47013;42.664;23.242;2023-04-01T21:05:19;93102.56;;;7.61;80.07
61128;BME280;47013;42.664;23.242;2023-04-01T21:08:02;93101.84;;;7.57;79.99
61128;BME280;47013;42.664;23.242;2023-04-01T21:13:24;93116.25;;;7.74;78.33
61128;BME280;47013;42.664;23.242;2023-04-01T21:16:00;93121.19;;;7.79;78.12
61128;BME280;47013;42.664;23.242;2023-04-01T21:21:16;93113.50;;;7.78;75.54
61128;BME280;47013;42.664;23.242;2023-04-01T22:05:36;93134.47;;;7.93;72.11
61128;BME280;47013;42.664;23.242;2023-04-01T22:08:12;93124.44;;;7.94;71.93
61128;BME280;47013;42.664;23.242;2023-04-01T22:18:36;93102.50;;;7.92;72.72
61128;BME280;47013;42.664;23.242;2023-04-01T22:33:11;93108.47;;;7.80;72.30
61128;BME280;47013;42.664;23.242;2023-04-01T22:43:40;93109.75;;;7.72;72.89
61128;BME280;47013;42.664;23.242;2023-04-01T22:59:01;93132.38;;;7.81;70.32
61128;BME280;47013;42.664;23.242;2023-04-01T23:01:30;93137.72;;;7.85;70.35
61128;BME280;47013;42.664;23.242;2023-04-01T23:04:03;93137.28;;;7.86;70.46
61128;BME280;47013;42.664;23.242;2023-04-01T23:06:38;93131.19;;;7.82;71.07
61128;BME280;47013;42.664;23.242;2023-04-01T23:16:36;93135.28;;;7.63;71.58
61128;BME280;47013;42.664;23.242;2023-04-01T23:19:17;93141.38;;;7.67;71.70
61128;BME280;47013;42.664;23.242;2023-04-01T23:21:46;93143.72;;;7.65;71.74
61128;BME280;47013;42.664;23.242;2023-04-01T23:26:56;93139.38;;;7.75;70.77
61128;BME280;47013;42.664;23.242;2023-04-01T23:29:24;93157.78;;;7.80;71.40
61128;BME280;47013;42.664;23.242;2023-04-01T23:32:33;93150.56;;;7.74;71.31
61128;BME280;47013;42.664;23.242;2023-04-01T23:34:39;93152.69;;;7.59;71.02
61128;BME280;47013;42.664;23.242;2023-04-01T23:37:05;93149.53;;;7.64;71.26
61128;BME280;47013;42.664;23.242;2023-04-01T23:42:32;93157.63;;;7.64;70.52
61128;BME280;47013;42.664;23.242;2023-04-01T23:45:11;93146.78;;;7.67;70.83
61128;BME280;47013;42.664;23.242;2023-04-01T23:47:40;93148.72;;;7.67;70.83
61128;BME280;47013;42.664;23.242;2023-04-01T23:52:35;93148.88;;;7.56;71.23
61128;BME280;47013;42.664;23.242;2023-04-01T23:57:36;93140.50;;;7.47;71.63
